Time;durP1;ratioP1;P1;durP2;ratioP2;P2;SDS_P1;SDS_P2;PMS_P1;PMS_P2;Temp;Humidity;BMP_temperature;BMP_pressure;BME280_temperature;BME280_humidity;BME280_pressure;Samples;Min_cycle;Max_cycle;Signal;HPM_P1;HPM_P2
2020/12/17 00:01:26;;;;;;;157.43;55.72;;;;;;;;;;5119504;28;20035;-90
2020/12/17 00:03:52;;;;;;;177.32;57.85;;;;;;;;;;5138552;28;20030;-90
2020/12/17 00:06:19;;;;;;;181.15;59.50;;;;;;;;;;5120516;28;20027;-91
2020/12/17 00:08:45;;;;;;;181.68;60.28;;;;;;;;;;5138474;28;20385;-91
2020/12/17 00:17:18;;;;;;;173.77;59.30;;;;;;;;;;5142794;27;20450;-90
2020/12/17 00:19:44;;;;;;;186.77;67.20;;;;;;;;;;5142860;27;20054;-90
2020/12/17 00:22:10;;;;;;;189.45;63.17;;;;;;;;;;5142648;27;20027;-91
2020/12/17 00:24:36;;;;;;;190.25;59.65;;;;;;;;;;5142549;27;20030;-90
2020/12/17 00:30:07;;;;;;;183.55;58.50;;;;;;;;;;5142406;27;20367;-90
2020/12/17 00:32:33;;;;;;;179.07;59.20;;;;;;;;;;5142633;27;20031;-90
2020/12/17 00:34:59;;;;;;;166.00;55.63;;;;;;;;;;5123651;27;20077;-91
2020/12/17 00:37:29;;;;;;;186.35;59.17;;;;;;;;;;5142033;27;20015;-90
2020/12/17 00:39:55;;;;;;;187.48;60.35;;;;;;;;;;5142469;27;20110;-91
2020/12/17 00:42:21;;;;;;;200.45;62.53;;;;;;;;;;5124050;27;20360;-90
2020/12/17 00:44:47;;;;;;;187.57;60.65;;;;;;;;;;5142036;27;20023;-91
2020/12/17 00:47:13;;;;;;;193.68;59.30;;;;;;;;;;5124076;27;20031;-90
2020/12/17 00:49:39;;;;;;;178.35;56.67;;;;;;;;;;5124012;27;20027;-91
2020/12/17 00:52:05;;;;;;;186.73;56.90;;;;;;;;;;5123811;27;20019;-92
2020/12/17 00:54:31;;;;;;;168.05;55.65;;;;;;;;;;5123894;27;20406;-90
2020/12/17 00:56:57;;;;;;;160.43;53.17;;;;;;;;;;5123806;27;20110;-90
2020/12/17 00:59:23;;;;;;;159.38;53.35;;;;;;;;;;5142038;27;20061;-89
2020/12/17 01:01:49;;;;;;;163.60;55.63;;;;;;;;;;5141598;27;20051;-90
2020/12/17 01:04:16;;;;;;;153.63;53.97;;;;;;;;;;5123255;27;20038;-89
2020/12/17 01:06:42;;;;;;;152.30;51.95;;;;;;;;;;5141755;27;20023;-89
2020/12/17 01:09:10;;;;;;;155.73;53.22;;;;;;;;;;5141697;27;20405;-90
2020/12/17 01:11:54;;;;;;;159.65;54.17;;;;;;;;;;5141727;27;20128;-89
2020/12/17 01:14:20;;;;;;;153.30;50.20;;;;;;;;;;5123393;27;20019;-89
2020/12/17 01:16:49;;;;;;;152.05;50.88;;;;;;;;;;5141571;27;20026;-89
2020/12/17 01:19:16;;;;;;;162.88;52.25;;;;;;;;;;5141534;27;20355;-88
2020/12/17 01:21:42;;;;;;;155.32;52.58;;;;;;;;;;5122826;27;20055;-89
2020/12/17 01:24:08;;;;;;;156.70;51.75;;;;;;;;;;5123142;27;20065;-91
2020/12/17 01:26:34;;;;;;;151.45;54.03;;;;;;;;;;5123260;27;20023;-90
2020/12/17 01:29:00;;;;;;;149.15;51.30;;;;;;;;;;5141198;27;20019;-90
2020/12/17 01:31:26;;;;;;;157.98;53.03;;;;;;;;;;5141373;27;20062;-89
2020/12/17 01:33:54;;;;;;;166.10;55.00;;;;;;;;;;5141486;27;20015;-89
2020/12/17 01:36:20;;;;;;;185.90;58.67;;;;;;;;;;5141159;27;20422;-89
2020/12/17 01:38:46;;;;;;;226.23;70.90;;;;;;;;;;5123078;27;20038;-89
2020/12/17 01:41:13;;;;;;;217.68;66.80;;;;;;;;;;5141213;27;20099;-89
2020/12/17 01:43:42;;;;;;;178.68;57.15;;;;;;;;;;5141211;27;20031;-89
2020/12/17 01:46:09;;;;;;;200.30;61.47;;;;;;;;;;5141214;27;20027;-89
2020/12/17 01:48:35;;;;;;;178.10;55.70;;;;;;;;;;5141213;27;20035;-89
2020/12/17 01:51:02;;;;;;;161.38;52.50;;;;;;;;;;5122819;27;20064;-89
2020/12/17 01:53:28;;;;;;;175.52;55.70;;;;;;;;;;5122565;27;20118;-89
2020/12/17 01:55:56;;;;;;;166.63;56.15;;;;;;;;;;5140766;27;20454;-90
2020/12/17 01:58:42;;;;;;;163.30;54.75;;;;;;;;;;5140672;27;20023;-89
2020/12/17 02:01:11;;;;;;;152.20;52.20;;;;;;;;;;5140648;27;20037;-89
2020/12/17 02:03:37;;;;;;;176.23;54.97;;;;;;;;;;5120027;28;20032;-89
2020/12/17 02:06:04;;;;;;;173.63;55.67;;;;;;;;;;5120171;28;20016;-89
2020/12/17 02:08:36;;;;;;;177.23;58.47;;;;;;;;;;5119171;28;20024;-89
2020/12/17 02:11:03;;;;;;;173.40;59.88;;;;;;;;;;5119022;28;20739;-90
2020/12/17 02:13:33;;;;;;;194.27;65.72;;;;;;;;;;5119933;28;20028;-90
2020/12/17 02:15:59;;;;;;;183.15;66.18;;;;;;;;;;5119808;28;20110;-89
2020/12/17 02:18:25;;;;;;;173.73;56.47;;;;;;;;;;5119548;28;20085;-89
2020/12/17 02:20:51;;;;;;;162.65;56.35;;;;;;;;;;5119707;28;20027;-91
2020/12/17 02:23:17;;;;;;;148.82;50.00;;;;;;;;;;5118850;28;20026;-90
2020/12/17 02:25:43;;;;;;;177.60;57.33;;;;;;;;;;5119588;28;20020;-91
2020/12/17 02:31:13;;;;;;;131.45;46.55;;;;;;;;;;5119762;28;20042;-90
2020/12/17 02:33:39;;;;;;;132.88;48.25;;;;;;;;;;5119635;28;20161;-89
2020/12/17 02:36:05;;;;;;;129.45;46.65;;;;;;;;;;5117535;28;20023;-90
2020/12/17 02:38:31;;;;;;;133.82;46.50;;;;;;;;;;5119796;28;20020;-90
2020/12/17 02:40:57;;;;;;;129.93;46.47;;;;;;;;;;5119568;28;20016;-89
2020/12/17 02:43:23;;;;;;;129.18;45.35;;;;;;;;;;5119139;28;20031;-89
2020/12/17 02:45:50;;;;;;;123.38;43.78;;;;;;;;;;5118172;28;20055;-90
2020/12/17 02:48:19;;;;;;;133.65;45.85;;;;;;;;;;5118245;28;20067;-90
2020/12/17 02:50:46;;;;;;;130.88;45.47;;;;;;;;;;5118900;28;20065;-90
2020/12/17 02:53:12;;;;;;;167.63;53.65;;;;;;;;;;5119169;28;20027;-90
2020/12/17 02:55:39;;;;;;;131.70;47.50;;;;;;;;;;5117982;28;20016;-89
2020/12/17 02:58:05;;;;;;;112.10;43.25;;;;;;;;;;5119101;28;20361;-89
2020/12/17 03:00:31;;;;;;;102.68;39.40;;;;;;;;;;5119246;28;20016;-89
2020/12/17 03:02:57;;;;;;;128.73;48.83;;;;;;;;;;5133813;27;20172;-90
2020/12/17 03:05:24;;;;;;;119.50;42.90;;;;;;;;;;5139342;27;20031;-89
2020/12/17 03:07:50;;;;;;;118.72;43.72;;;;;;;;;;5139603;27;20046;-90
2020/12/17 03:10:16;;;;;;;123.45;44.20;;;;;;;;;;5139574;27;20027;-90
2020/12/17 03:12:43;;;;;;;118.03;40.10;;;;;;;;;;5121225;27;20023;-90
2020/12/17 03:15:09;;;;;;;117.57;41.85;;;;;;;;;;5138973;27;20302;-89
2020/12/17 03:17:36;;;;;;;122.05;43.95;;;;;;;;;;5121063;27;20712;-89
2020/12/17 03:20:03;;;;;;;126.65;43.70;;;;;;;;;;5120576;27;20027;-89
2020/12/17 03:22:29;;;;;;;127.45;43.92;;;;;;;;;;5139358;27;20102;-89
2020/12/17 03:24:55;;;;;;;125.95;43.03;;;;;;;;;;5139395;27;20019;-89
2020/12/17 03:27:21;;;;;;;129.35;44.40;;;;;;;;;;5139132;27;20058;-89
2020/12/17 03:29:47;;;;;;;132.13;45.25;;;;;;;;;;5139008;27;20027;-88
2020/12/17 03:32:13;;;;;;;132.02;44.65;;;;;;;;;;5120702;27;20028;-89
2020/12/17 03:34:39;;;;;;;128.60;42.42;;;;;;;;;;5139205;27;20309;-88
2020/12/17 03:37:08;;;;;;;136.73;45.13;;;;;;;;;;5139381;27;20042;-88
2020/12/17 03:39:34;;;;;;;129.32;43.67;;;;;;;;;;5138835;27;20139;-89
2020/12/17 03:42:00;;;;;;;130.20;44.20;;;;;;;;;;5139046;27;20045;-88
2020/12/17 03:47:30;;;;;;;139.00;45.58;;;;;;;;;;5138921;27;20038;-89
2020/12/17 03:49:56;;;;;;;139.32;46.20;;;;;;;;;;5139098;27;20023;-88
2020/12/17 03:52:22;;;;;;;144.65;44.28;;;;;;;;;;5138807;27;20023;-88
2020/12/17 03:54:48;;;;;;;135.02;44.00;;;;;;;;;;5138933;28;20035;-87
2020/12/17 03:57:14;;;;;;;147.65;45.13;;;;;;;;;;5138767;28;20031;-88
2020/12/17 03:59:40;;;;;;;131.27;43.63;;;;;;;;;;5138449;28;20343;-88
2020/12/17 04:02:06;;;;;;;154.70;46.17;;;;;;;;;;5120464;28;20428;-89
2020/12/17 04:04:32;;;;;;;147.80;46.03;;;;;;;;;;5138734;28;20082;-88
2020/12/17 04:06:58;;;;;;;129.35;44.40;;;;;;;;;;5138479;28;20432;-89
2020/12/17 04:09:24;;;;;;;138.25;43.38;;;;;;;;;;5138398;28;20417;-89
2020/12/17 04:11:50;;;;;;;128.80;41.22;;;;;;;;;;5138878;28;20409;-89
2020/12/17 04:14:53;;;;;;;127.05;41.53;;;;;;;;;;5120864;28;20027;-88
2020/12/17 04:17:19;;;;;;;118.88;42.50;;;;;;;;;;5138416;28;20023;-87
2020/12/17 04:19:45;;;;;;;122.38;41.10;;;;;;;;;;5138711;28;20027;-87
2020/12/17 04:22:16;;;;;;;115.30;40.45;;;;;;;;;;5138695;28;20064;-88
2020/12/17 04:24:44;;;;;;;125.53;41.15;;;;;;;;;;5138788;28;20019;-89
2020/12/17 04:27:10;;;;;;;115.00;41.15;;;;;;;;;;5138244;28;20020;-89
2020/12/17 04:29:36;;;;;;;116.18;40.00;;;;;;;;;;5120200;28;20023;-89
2020/12/17 04:32:02;;;;;;;117.75;41.70;;;;;;;;;;5120004;28;20049;-88
2020/12/17 04:34:28;;;;;;;117.75;41.03;;;;;;;;;;5138438;28;20401;-89
2020/12/17 04:36:54;;;;;;;108.90;38.72;;;;;;;;;;5138660;28;20019;-89
2020/12/17 04:39:20;;;;;;;106.03;38.53;;;;;;;;;;5120142;28;20024;-89
2020/12/17 04:41:47;;;;;;;111.38;41.28;;;;;;;;;;5138346;28;20057;-88
2020/12/17 04:47:19;;;;;;;115.60;40.83;;;;;;;;;;5138391;28;20018;-87
2020/12/17 04:49:50;;;;;;;114.07;41.60;;;;;;;;;;5138172;28;20027;-87
2020/12/17 04:52:16;;;;;;;117.95;41.13;;;;;;;;;;5138251;28;20027;-86
2020/12/17 04:54:42;;;;;;;112.53;39.75;;;;;;;;;;5138328;28;20360;-88
2020/12/17 04:57:09;;;;;;;118.90;40.92;;;;;;;;;;5138454;28;20026;-88
2020/12/17 05:02:43;;;;;;;134.50;43.63;;;;;;;;;;5137181;27;20353;-88
2020/12/17 05:05:09;;;;;;;131.90;47.33;;;;;;;;;;5123671;27;20038;-89
2020/12/17 05:07:36;;;;;;;127.45;43.95;;;;;;;;;;5141715;27;20117;-89
2020/12/17 05:10:03;;;;;;;135.35;42.70;;;;;;;;;;5141887;27;20073;-88
2020/12/17 05:12:29;;;;;;;128.27;43.15;;;;;;;;;;5123747;27;20072;-88
2020/12/17 05:14:55;;;;;;;147.10;46.10;;;;;;;;;;5123367;27;20126;-87
2020/12/17 05:17:22;;;;;;;142.98;44.63;;;;;;;;;;5141826;27;20290;-87
2020/12/17 05:19:49;;;;;;;144.77;46.13;;;;;;;;;;5141678;27;20015;-88
2020/12/17 05:22:15;;;;;;;136.52;45.45;;;;;;;;;;5124169;27;20040;-87
2020/12/17 05:24:47;;;;;;;114.63;41.08;;;;;;;;;;5123254;27;20030;-88
2020/12/17 05:27:13;;;;;;;114.55;40.95;;;;;;;;;;5141432;27;20030;-88
2020/12/17 05:35:49;;;;;;;117.88;42.97;;;;;;;;;;5141475;27;20088;-87
2020/12/17 05:38:17;;;;;;;119.80;42.40;;;;;;;;;;5141267;27;20680;-87
2020/12/17 05:40:43;;;;;;;107.25;40.90;;;;;;;;;;5141337;27;20064;-89
2020/12/17 05:43:10;;;;;;;98.30;38.65;;;;;;;;;;5140945;27;20035;-89
2020/12/17 05:45:37;;;;;;;94.47;37.63;;;;;;;;;;5141245;27;20031;-89
2020/12/17 05:48:20;;;;;;;103.82;41.13;;;;;;;;;;5141234;27;20023;-88
2020/12/17 05:50:59;;;;;;;98.70;39.72;;;;;;;;;;5140886;27;20102;-88
2020/12/17 05:53:30;;;;;;;108.97;39.05;;;;;;;;;;5140746;27;20400;-88
2020/12/17 05:56:06;;;;;;;145.93;47.67;;;;;;;;;;5140984;27;20016;-88
2020/12/17 05:58:39;;;;;;;142.73;50.00;;;;;;;;;;5122578;27;20020;-88
2020/12/17 06:01:16;;;;;;;114.40;44.13;;;;;;;;;;5140720;27;20015;-88
2020/12/17 06:03:43;;;;;;;101.63;37.90;;;;;;;;;;5119113;28;20096;-89
2020/12/17 06:06:09;;;;;;;96.80;37.97;;;;;;;;;;5120079;28;20449;-88
2020/12/17 06:08:39;;;;;;;101.75;37.30;;;;;;;;;;5119012;28;20031;-89
2020/12/17 06:11:06;;;;;;;145.32;60.03;;;;;;;;;;5119301;28;20310;-88
2020/12/17 06:13:39;;;;;;;137.25;55.88;;;;;;;;;;5119111;28;20023;-88
2020/12/17 06:16:06;;;;;;;106.88;42.60;;;;;;;;;;5120141;28;20161;-88
2020/12/17 06:18:53;;;;;;;108.82;40.47;;;;;;;;;;5119851;28;20027;-88
2020/12/17 06:21:19;;;;;;;134.07;45.10;;;;;;;;;;5040760;28;20029;-88
2020/12/17 06:23:45;;;;;;;214.15;58.10;;;;;;;;;;5057313;28;20108;-88
2020/12/17 06:26:12;;;;;;;163.23;48.67;;;;;;;;;;5040747;28;20029;-88
2020/12/17 06:28:44;;;;;;;142.73;48.33;;;;;;;;;;5057458;28;20040;-90
2020/12/17 06:31:13;;;;;;;140.30;45.05;;;;;;;;;;5057239;28;20029;-88
2020/12/17 06:33:39;;;;;;;137.52;44.05;;;;;;;;;;5057089;28;20408;-88
2020/12/17 06:36:09;;;;;;;127.45;42.15;;;;;;;;;;5056900;28;20021;-88
2020/12/17 06:38:38;;;;;;;117.38;40.92;;;;;;;;;;5057078;28;20323;-89
2020/12/17 06:41:17;;;;;;;124.43;41.95;;;;;;;;;;5056335;28;20028;-88
2020/12/17 06:43:43;;;;;;;123.32;41.22;;;;;;;;;;5040211;28;20419;-89
2020/12/17 06:46:28;;;;;;;126.53;41.15;;;;;;;;;;5056907;28;20091;-88
2020/12/17 06:48:54;;;;;;;123.80;41.53;;;;;;;;;;5040294;28;20024;-88
2020/12/17 06:51:34;;;;;;;122.45;40.85;;;;;;;;;;5057023;28;20112;-89
2020/12/17 06:54:01;;;;;;;118.28;40.60;;;;;;;;;;5040030;28;20383;-87
2020/12/17 06:56:29;;;;;;;117.43;41.95;;;;;;;;;;5039726;28;20032;-88
2020/12/17 07:02:31;;;;;;;121.97;42.38;;;;;;;;;;5118541;28;20047;-88
2020/12/17 07:04:57;;;;;;;117.35;41.50;;;;;;;;;;5139608;27;20035;-88
2020/12/17 07:07:24;;;;;;;140.73;49.72;;;;;;;;;;5139288;27;20027;-88
2020/12/17 07:09:54;;;;;;;149.10;53.60;;;;;;;;;;5139674;27;20031;-87
2020/12/17 07:12:36;;;;;;;351.35;98.53;;;;;;;;;;5139323;27;20023;-88
2020/12/17 07:15:02;;;;;;;434.33;117.85;;;;;;;;;;5139637;27;20102;-88
2020/12/17 07:17:28;;;;;;;370.35;95.25;;;;;;;;;;5139285;27;20023;-88
2020/12/17 07:19:54;;;;;;;195.77;62.63;;;;;;;;;;5139508;27;20023;-88
2020/12/17 07:22:21;;;;;;;129.02;45.78;;;;;;;;;;5138866;27;20023;-88
2020/12/17 07:24:48;;;;;;;128.73;45.92;;;;;;;;;;5139419;27;20027;-88
2020/12/17 07:27:15;;;;;;;145.70;52.90;;;;;;;;;;5139205;27;20342;-88
2020/12/17 07:35:48;;;;;;;127.72;43.38;;;;;;;;;;5139177;27;20041;-88
2020/12/17 07:38:19;;;;;;;150.13;53.35;;;;;;;;;;5130245;27;20146;-88
2020/12/17 07:40:46;;;;;;;142.57;51.22;;;;;;;;;;5139135;27;20019;-88
2020/12/17 07:43:13;;;;;;;150.73;51.65;;;;;;;;;;5138836;27;20031;-86
2020/12/17 07:45:46;;;;;;;125.18;46.03;;;;;;;;;;5138878;27;20042;-89
2020/12/17 07:48:30;;;;;;;140.18;48.88;;;;;;;;;;5138793;27;20015;-88
2020/12/17 07:50:57;;;;;;;159.15;51.25;;;;;;;;;;5120108;27;20409;-88
2020/12/17 07:53:23;;;;;;;129.93;48.00;;;;;;;;;;5138611;28;20038;-88
2020/12/17 07:55:51;;;;;;;122.35;44.03;;;;;;;;;;5138681;28;20033;-88
2020/12/17 07:58:17;;;;;;;121.32;42.28;;;;;;;;;;5138305;28;20015;-88
2020/12/17 08:00:43;;;;;;;121.15;43.13;;;;;;;;;;5138170;28;20026;-87
2020/12/17 08:03:09;;;;;;;123.40;45.45;;;;;;;;;;5138111;28;20070;-87
2020/12/17 08:05:36;;;;;;;128.75;43.47;;;;;;;;;;5138269;28;20106;-88
2020/12/17 08:08:02;;;;;;;122.55;45.75;;;;;;;;;;5119802;28;20043;-87
2020/12/17 08:10:28;;;;;;;115.68;43.38;;;;;;;;;;5138503;28;20019;-87
2020/12/17 08:12:57;;;;;;;145.60;50.80;;;;;;;;;;5138427;28;20398;-87
2020/12/17 08:15:41;;;;;;;128.00;47.75;;;;;;;;;;5138316;28;20020;-85
2020/12/17 08:18:07;;;;;;;127.65;46.67;;;;;;;;;;5138648;28;20024;-85
2020/12/17 08:20:33;;;;;;;100.93;39.13;;;;;;;;;;5138060;28;20019;-84
2020/12/17 08:23:00;;;;;;;112.03;41.83;;;;;;;;;;5138143;28;20421;-85
2020/12/17 08:25:26;;;;;;;139.95;52.55;;;;;;;;;;5119936;28;20055;-85
2020/12/17 08:27:53;;;;;;;191.23;71.85;;;;;;;;;;5138572;28;20035;-85
2020/12/17 08:30:20;;;;;;;206.77;72.22;;;;;;;;;;5138444;28;20023;-86
2020/12/17 08:32:55;;;;;;;179.80;71.95;;;;;;;;;;5138121;28;20031;-87
2020/12/17 08:35:23;;;;;;;139.02;55.55;;;;;;;;;;5140559;27;20016;-85
2020/12/17 08:37:50;;;;;;;118.13;48.47;;;;;;;;;;5142460;27;20068;-86
2020/12/17 08:40:21;;;;;;;113.95;47.53;;;;;;;;;;5142263;27;20060;-86
2020/12/17 08:42:47;;;;;;;100.65;42.22;;;;;;;;;;5123852;27;20023;-85
2020/12/17 08:45:14;;;;;;;94.38;39.15;;;;;;;;;;5123455;27;20046;-86
2020/12/17 08:47:42;;;;;;;96.75;40.15;;;;;;;;;;5142264;27;20035;-87
2020/12/17 08:50:09;;;;;;;90.55;38.22;;;;;;;;;;5142242;27;20019;-89
2020/12/17 08:52:36;;;;;;;201.95;41.15;;;;;;;;;;5142298;27;20023;-90
2020/12/17 08:55:06;;;;;;;167.30;41.58;;;;;;;;;;5123741;27;20064;-89
2020/12/17 08:57:32;;;;;;;436.88;69.57;;;;;;;;;;5142017;27;20023;-86
2020/12/17 09:00:35;;;;;;;238.75;56.53;;;;;;;;;;5142065;27;20023;-86
2020/12/17 09:03:02;;;;;;;117.97;43.60;;;;;;;;;;5123313;27;20142;-86
2020/12/17 09:05:28;;;;;;;112.53;47.65;;;;;;;;;;5141894;27;20019;-86
2020/12/17 09:07:54;;;;;;;86.40;32.95;;;;;;;;;;5123602;27;20030;-86
2020/12/17 09:10:20;;;;;;;79.53;32.58;;;;;;;;;;5141692;27;20106;-86
2020/12/17 09:12:55;;;;;;;90.13;34.83;;;;;;;;;;5141468;27;20019;-86
2020/12/17 09:15:21;;;;;;;97.78;37.35;;;;;;;;;;5141328;27;20137;-85
2020/12/17 09:17:47;;;;;;;103.35;38.65;;;;;;;;;;5141442;27;20068;-86
2020/12/17 09:20:20;;;;;;;100.82;38.97;;;;;;;;;;5122482;27;20023;-86
2020/12/17 09:22:47;;;;;;;90.13;35.35;;;;;;;;;;5141379;27;20031;-88
2020/12/17 09:25:13;;;;;;;104.57;38.80;;;;;;;;;;5141311;27;20049;-86
2020/12/17 09:27:41;;;;;;;119.97;40.67;;;;;;;;;;5141184;27;20031;-86
2020/12/17 09:30:14;;;;;;;124.50;42.95;;;;;;;;;;5141170;27;20023;-88
2020/12/17 09:32:40;;;;;;;137.02;45.80;;;;;;;;;;5122762;27;20039;-85
2020/12/17 09:35:09;;;;;;;122.97;42.42;;;;;;;;;;5141145;27;20034;-86
2020/12/17 09:37:36;;;;;;;125.68;41.45;;;;;;;;;;5141029;27;20023;-87
2020/12/17 09:40:07;;;;;;;119.30;41.60;;;;;;;;;;5140723;27;20030;-86
2020/12/17 09:42:34;;;;;;;124.63;43.75;;;;;;;;;;5140750;27;20027;-86
2020/12/17 09:45:12;;;;;;;113.45;40.30;;;;;;;;;;5140644;27;20027;-86
2020/12/17 09:47:38;;;;;;;104.65;38.30;;;;;;;;;;5140595;27;20027;-86
2020/12/17 09:50:14;;;;;;;96.28;36.88;;;;;;;;;;5140745;27;20034;-87
2020/12/17 09:52:40;;;;;;;120.60;48.05;;;;;;;;;;5141063;27;20397;-86
2020/12/17 09:55:07;;;;;;;125.63;47.78;;;;;;;;;;5140407;27;20019;-86
2020/12/17 09:57:43;;;;;;;125.13;49.88;;;;;;;;;;5140854;27;20030;-87
2020/12/17 10:00:46;;;;;;;140.23;53.05;;;;;;;;;;5140217;27;20019;-86
2020/12/17 10:03:12;;;;;;;;;;;;;;;;;;5140750;27;20053;-88
2020/12/17 10:05:39;;;;;;;114.60;44.10;;;;;;;;;;5140607;27;19968;-88
2020/12/17 10:08:05;;;;;;;117.00;42.67;;;;;;;;;;5122367;27;20033;-88
2020/12/17 10:10:34;;;;;;;126.95;43.60;;;;;;;;;;5140323;27;20031;-86
2020/12/17 10:13:00;;;;;;;105.65;40.90;;;;;;;;;;5140236;27;20027;-86
2020/12/17 10:18:45;;;;;;;98.13;39.80;;;;;;;;;;5140562;27;20067;-87
2020/12/17 10:21:11;;;;;;;109.07;45.30;;;;;;;;;;5140177;27;20072;-86
2020/12/17 10:23:37;;;;;;;117.97;44.50;;;;;;;;;;5140205;27;20067;-87
2020/12/17 10:26:04;;;;;;;112.30;43.00;;;;;;;;;;5121798;27;20078;-86
2020/12/17 10:28:30;;;;;;;121.13;50.42;;;;;;;;;;5140047;27;20038;-87
2020/12/17 10:30:56;;;;;;;112.32;50.28;;;;;;;;;;5121696;27;20061;-88
2020/12/17 10:33:22;;;;;;;115.78;50.95;;;;;;;;;;5140115;27;20050;-87
2020/12/17 10:35:48;;;;;;;120.53;43.90;;;;;;;;;;5140108;27;20027;-88
2020/12/17 10:38:14;;;;;;;107.90;43.63;;;;;;;;;;5139974;27;20050;-87
2020/12/17 10:40:42;;;;;;;135.00;57.08;;;;;;;;;;5139722;27;20035;-85
2020/12/17 10:43:08;;;;;;;123.03;48.42;;;;;;;;;;5139146;27;20023;-87
2020/12/17 10:45:34;;;;;;;98.75;39.95;;;;;;;;;;5139092;27;20348;-88
2020/12/17 10:48:00;;;;;;;98.93;40.35;;;;;;;;;;5139646;27;20411;-85
2020/12/17 10:50:26;;;;;;;123.43;43.63;;;;;;;;;;5139459;27;20019;-85
2020/12/17 10:52:52;;;;;;;126.93;46.97;;;;;;;;;;5139694;27;20027;-87
2020/12/17 10:55:18;;;;;;;109.70;42.72;;;;;;;;;;5120783;27;20058;-87
2020/12/17 10:57:44;;;;;;;120.68;43.88;;;;;;;;;;5138688;27;20019;-87
2020/12/17 13:16:50;;;;;;;170.32;61.72;;;;;;;;;;5135998;27;20367;-94
2020/12/17 13:19:16;;;;;;;186.23;69.38;;;;;;;;;;5135333;27;20039;-94
2020/12/17 13:21:43;;;;;;;188.85;72.93;;;;;;;;;;5136162;28;20050;-93
2020/12/17 13:24:09;;;;;;;191.95;72.13;;;;;;;;;;5135784;28;20100;-92
2020/12/17 13:26:35;;;;;;;203.70;73.30;;;;;;;;;;5135906;28;20060;-92
2020/12/17 13:29:01;;;;;;;184.15;65.00;;;;;;;;;;5136086;28;20023;-93
2020/12/17 13:31:28;;;;;;;165.77;61.13;;;;;;;;;;5134618;28;20060;-93
2020/12/17 13:33:55;;;;;;;156.98;58.22;;;;;;;;;;5135937;27;20034;-93
2020/12/17 13:36:22;;;;;;;165.57;59.97;;;;;;;;;;5135899;28;20012;-93
2020/12/17 13:38:48;;;;;;;168.20;61.00;;;;;;;;;;5135587;27;20019;-85
2020/12/17 13:41:14;;;;;;;165.55;60.85;;;;;;;;;;5135666;28;20034;-89
2020/12/17 13:43:40;;;;;;;136.68;55.17;;;;;;;;;;5134939;27;20035;-91
2020/12/17 13:46:06;;;;;;;132.30;51.88;;;;;;;;;;5135428;28;20027;-91
2020/12/17 13:48:32;;;;;;;151.85;57.35;;;;;;;;;;5135868;28;20413;-91
2020/12/17 13:50:58;;;;;;;149.57;57.67;;;;;;;;;;5135503;28;20023;-92
2020/12/17 13:53:24;;;;;;;157.90;61.42;;;;;;;;;;5135376;28;20058;-92
2020/12/17 13:55:54;;;;;;;166.93;65.00;;;;;;;;;;5134459;27;20036;-92
2020/12/17 13:58:20;;;;;;;163.38;63.67;;;;;;;;;;5134293;28;20422;-93
2020/12/17 14:01:05;;;;;;;164.13;61.97;;;;;;;;;;5135050;28;20429;-91
2020/12/17 14:03:31;;;;;;;150.15;59.47;;;;;;;;;;5135073;27;20027;-92
2020/12/17 14:05:57;;;;;;;164.93;66.10;;;;;;;;;;5134958;28;20355;-92
2020/12/17 14:08:23;;;;;;;172.32;66.65;;;;;;;;;;5134123;28;20023;-92
2020/12/17 14:10:49;;;;;;;156.80;63.15;;;;;;;;;;5135275;28;20023;-92
2020/12/17 14:13:15;;;;;;;143.68;56.28;;;;;;;;;;5134201;28;20028;-92
2020/12/17 14:15:41;;;;;;;162.98;60.63;;;;;;;;;;5133039;28;20490;-93
2020/12/17 14:18:07;;;;;;;135.25;52.95;;;;;;;;;;5120053;28;20032;-94
2020/12/17 14:20:33;;;;;;;139.75;54.42;;;;;;;;;;5121006;28;20016;-93
2020/12/17 14:22:59;;;;;;;128.15;51.28;;;;;;;;;;5121104;28;20034;-92
2020/12/17 14:25:25;;;;;;;110.93;45.75;;;;;;;;;;5120966;28;20059;-93
2020/12/17 14:27:52;;;;;;;125.40;48.33;;;;;;;;;;5120935;28;20076;-92
2020/12/17 14:30:18;;;;;;;120.13;43.95;;;;;;;;;;5121065;28;20032;-92
2020/12/17 14:32:44;;;;;;;124.32;42.90;;;;;;;;;;5120951;28;20051;-92
2020/12/17 14:35:10;;;;;;;124.38;46.85;;;;;;;;;;5119919;28;20346;-93
2020/12/17 14:37:36;;;;;;;157.57;63.53;;;;;;;;;;5102974;28;20027;-93
2020/12/17 14:40:02;;;;;;;191.98;79.38;;;;;;;;;;5120664;28;20024;-92
2020/12/17 14:42:29;;;;;;;138.15;57.22;;;;;;;;;;5119525;28;20023;-92
2020/12/17 14:44:55;;;;;;;116.22;46.83;;;;;;;;;;5119727;27;20071;-93
2020/12/17 14:47:21;;;;;;;157.48;60.78;;;;;;;;;;5121146;28;20291;-94
2020/12/17 14:49:48;;;;;;;175.77;67.60;;;;;;;;;;5122132;28;20110;-88
2020/12/17 14:52:14;;;;;;;325.63;86.15;;;;;;;;;;5119542;28;20027;-89
2020/12/17 14:54:40;;;;;;;345.38;92.43;;;;;;;;;;5115515;28;20027;-87
2020/12/17 14:57:07;;;;;;;213.02;65.80;;;;;;;;;;5120318;28;20402;-89
2020/12/17 14:59:33;;;;;;;171.90;58.47;;;;;;;;;;5119309;28;20027;-88
2020/12/17 15:01:59;;;;;;;169.77;62.58;;;;;;;;;;5119373;28;20034;-89
2020/12/17 15:04:25;;;;;;;142.45;54.97;;;;;;;;;;5120721;28;20428;-89
2020/12/17 15:06:51;;;;;;;155.70;58.15;;;;;;;;;;5119317;28;20044;-88
2020/12/17 15:09:17;;;;;;;148.45;55.85;;;;;;;;;;5119088;28;20023;-89
2020/12/17 15:11:43;;;;;;;154.07;61.92;;;;;;;;;;5120375;28;20080;-95
2020/12/17 15:14:10;;;;;;;152.82;57.72;;;;;;;;;;5119232;28;20023;-92
2020/12/17 15:19:40;;;;;;;167.73;66.03;;;;;;;;;;5120708;28;20060;-93
2020/12/17 15:22:06;;;;;;;189.15;77.25;;;;;;;;;;5118971;28;20027;-94
2020/12/17 15:24:32;;;;;;;211.25;80.68;;;;;;;;;;5120010;28;20039;-93
2020/12/17 15:26:59;;;;;;;200.95;77.47;;;;;;;;;;5119286;28;20406;-94
2020/12/17 15:29:25;;;;;;;200.75;69.72;;;;;;;;;;5118734;28;20027;-93
2020/12/17 15:31:51;;;;;;;196.88;68.80;;;;;;;;;;5119576;28;20477;-92
2020/12/17 15:34:17;;;;;;;180.38;66.18;;;;;;;;;;5119612;28;20031;-93
2020/12/17 15:36:43;;;;;;;207.63;77.07;;;;;;;;;;5120144;28;20046;-93
2020/12/17 15:39:09;;;;;;;207.07;76.00;;;;;;;;;;5120191;28;20020;-94
2020/12/17 15:43:13;;;;;;;275.52;79.07;;;;;;;;;;5095333;27;20427;-91
2020/12/17 15:45:40;;;;;;;252.48;77.40;;;;;;;;;;5095244;28;20361;-91
2020/12/17 15:48:07;;;;;;;458.27;87.45;;;;;;;;;;5095071;28;20025;-93
2020/12/17 15:50:33;;;;;;;236.15;69.97;;;;;;;;;;5095030;28;20029;-92
2020/12/17 15:52:59;;;;;;;185.98;64.63;;;;;;;;;;5093897;28;20476;-92
2020/12/17 15:55:25;;;;;;;212.82;65.18;;;;;;;;;;5094832;28;20063;-92
2020/12/17 15:57:52;;;;;;;222.05;68.93;;;;;;;;;;5095412;28;20025;-92
2020/12/17 16:00:18;;;;;;;200.25;70.88;;;;;;;;;;5093291;28;20123;-91
2020/12/17 16:02:44;;;;;;;183.40;68.65;;;;;;;;;;5095020;28;20021;-92
2020/12/17 16:05:10;;;;;;;192.82;68.13;;;;;;;;;;5094389;28;20315;-90
2020/12/17 16:07:36;;;;;;;212.23;77.80;;;;;;;;;;5093925;28;20024;-92
2020/12/17 16:10:04;;;;;;;210.50;80.40;;;;;;;;;;5094792;28;20106;-90
2020/12/17 16:12:34;;;;;;;198.30;76.35;;;;;;;;;;5093679;28;20410;-92
2020/12/17 16:15:06;;;;;;;185.05;67.65;;;;;;;;;;5094647;28;20051;-92
2020/12/17 16:17:32;;;;;;;;;;;;;;;;;;5095395;28;20028;-91
2020/12/17 16:19:58;;;;;;;195.93;66.50;;;;;;;;;;5094078;28;19904;-91
2020/12/17 16:22:24;;;;;;;210.80;71.72;;;;;;;;;;5093486;28;20032;-91
2020/12/17 16:24:50;;;;;;;231.85;80.13;;;;;;;;;;5094366;28;20030;-90
2020/12/17 16:27:16;;;;;;;217.70;79.28;;;;;;;;;;5094432;28;20020;-91
2020/12/17 16:29:42;;;;;;;224.45;73.22;;;;;;;;;;5094503;28;20314;-88
2020/12/17 16:32:10;;;;;;;235.18;74.00;;;;;;;;;;5092670;28;20408;-91
2020/12/17 16:34:39;;;;;;;204.18;71.53;;;;;;;;;;5094427;28;20029;-91
2020/12/17 16:37:06;;;;;;;206.65;72.45;;;;;;;;;;5094062;28;20028;-90
2020/12/17 16:39:32;;;;;;;251.07;79.10;;;;;;;;;;5093450;28;20435;-92
2020/12/17 16:41:59;;;;;;;213.90;72.43;;;;;;;;;;5094151;28;20049;-90
2020/12/17 16:44:25;;;;;;;242.40;76.53;;;;;;;;;;5094062;28;20422;-91
2020/12/17 16:46:55;;;;;;;240.95;76.47;;;;;;;;;;5093041;28;20032;-90
2020/12/17 16:49:22;;;;;;;191.00;69.65;;;;;;;;;;5093735;28;20314;-90
2020/12/17 16:51:48;;;;;;;186.52;65.78;;;;;;;;;;5092658;28;20036;-92
2020/12/17 16:54:14;;;;;;;189.90;68.47;;;;;;;;;;5081232;28;20017;-90
2020/12/17 16:56:40;;;;;;;203.75;69.05;;;;;;;;;;5080467;28;20058;-94
2020/12/17 16:59:06;;;;;;;238.98;78.53;;;;;;;;;;5081142;28;20024;-88
2020/12/17 17:01:32;;;;;;;250.48;75.85;;;;;;;;;;5081491;28;20391;-86
2020/12/17 17:03:58;;;;;;;228.05;84.03;;;;;;;;;;5080977;28;20108;-90
2020/12/17 17:06:25;;;;;;;280.70;91.00;;;;;;;;;;5080640;28;20025;-88
2020/12/17 17:08:51;;;;;;;232.02;88.05;;;;;;;;;;5080218;28;20021;-85
2020/12/17 17:11:17;;;;;;;207.85;79.18;;;;;;;;;;5079042;28;20075;-86